createdAt,value
2019-03-16T00:02:07.490Z,6.28
2019-03-16T00:04:35.952Z,6.53
2019-03-16T00:07:04.692Z,6.58
2019-03-16T00:09:33.152Z,6.69
2019-03-16T00:12:01.789Z,6.82
2019-03-16T00:14:30.488Z,6.81
2019-03-16T00:16:58.984Z,6.86
2019-03-16T00:19:27.490Z,7.27
2019-03-16T00:21:55.983Z,7.32
2019-03-16T00:24:24.472Z,7.60
2019-03-16T00:26:52.936Z,7.27
2019-03-16T00:29:21.409Z,7.15
2019-03-16T00:31:49.877Z,7.29
2019-03-16T00:34:18.388Z,7.36
2019-03-16T00:36:46.883Z,7.49
2019-03-16T00:39:15.438Z,7.43
2019-03-16T00:41:43.940Z,7.24
2019-03-16T00:44:12.400Z,7.16
2019-03-16T00:46:40.889Z,6.92
2019-03-16T00:49:09.381Z,6.77
2019-03-16T00:51:37.872Z,6.99
2019-03-16T00:54:06.325Z,7.02
2019-03-16T00:56:34.800Z,6.87
2019-03-16T00:59:03.358Z,7.09
2019-03-16T01:01:31.826Z,7.02
2019-03-16T01:04:00.685Z,6.92
2019-03-16T01:06:29.152Z,6.94
2019-03-16T01:08:57.639Z,6.99
2019-03-16T01:11:26.098Z,7.19
2019-03-16T01:13:54.571Z,6.93
2019-03-16T01:16:23.066Z,6.96
2019-03-16T01:18:51.525Z,6.93
2019-03-16T01:21:20.023Z,7.05
2019-03-16T01:23:48.490Z,6.95
2019-03-16T01:26:16.978Z,6.47
2019-03-16T01:28:45.442Z,6.73
2019-03-16T01:31:13.935Z,6.73
2019-03-16T01:33:42.406Z,6.54
2019-03-16T01:36:12.380Z,6.79
2019-03-16T01:38:40.851Z,6.38
2019-03-16T01:41:09.319Z,6.39
2019-03-16T01:43:37.833Z,6.64
2019-03-16T01:46:06.332Z,6.31
2019-03-16T01:48:34.792Z,6.58
2019-03-16T01:51:03.272Z,6.68
2019-03-16T01:53:31.774Z,6.74
2019-03-16T01:56:00.232Z,6.87
2019-03-16T01:58:28.716Z,6.84
2019-03-16T02:00:57.217Z,6.54
2019-03-16T02:03:25.678Z,6.89
2019-03-16T02:05:54.174Z,6.84
2019-03-16T02:08:22.637Z,6.44
2019-03-16T02:10:51.280Z,6.72
2019-03-16T02:13:21.332Z,6.70
2019-03-16T02:15:49.801Z,6.79
2019-03-16T02:18:18.273Z,6.40
2019-03-16T02:20:46.740Z,6.39
2019-03-16T02:23:15.221Z,6.97
2019-03-16T02:25:43.684Z,6.81
2019-03-16T02:28:12.257Z,6.87
2019-03-16T02:30:40.721Z,6.41
2019-03-16T02:33:13.270Z,6.82
2019-03-16T02:35:39.395Z,6.85
2019-03-16T02:38:07.870Z,7.11
2019-03-16T02:40:36.329Z,7.07
2019-03-16T02:43:04.934Z,7.12
2019-03-16T02:45:33.360Z,7.43
2019-03-16T02:48:01.917Z,7.60
2019-03-16T02:50:30.417Z,7.79
2019-03-16T02:52:58.886Z,8.10
2019-03-16T02:55:27.368Z,8.18
2019-03-16T02:57:55.834Z,8.38
2019-03-16T03:00:24.312Z,8.36
2019-03-16T03:02:52.896Z,8.02
2019-03-16T03:05:21.571Z,7.86
2019-03-16T03:07:50.035Z,7.86
2019-03-16T03:10:18.499Z,7.50
2019-03-16T03:12:46.994Z,7.33
2019-03-16T03:15:15.522Z,7.44
2019-03-16T03:17:44.019Z,7.37
2019-03-16T03:20:12.674Z,7.42
2019-03-16T03:22:41.217Z,7.31
2019-03-16T03:25:09.754Z,7.52
2019-03-16T03:27:38.219Z,7.17
2019-03-16T03:30:09.957Z,7.39
2019-03-16T03:32:38.383Z,7.69
2019-03-16T03:35:08.722Z,7.98
2019-03-16T03:37:37.185Z,7.92
2019-03-16T03:40:11.085Z,7.94
2019-03-16T03:42:39.514Z,8.01
2019-03-16T03:45:10.715Z,8.08
2019-03-16T03:47:39.219Z,7.84
2019-03-16T03:50:10.464Z,7.85
2019-03-16T03:52:38.993Z,7.58
2019-03-16T03:55:11.216Z,7.73
2019-03-16T03:57:40.100Z,7.50
2019-03-16T04:00:19.573Z,7.41
2019-03-16T04:02:48.155Z,7.51
2019-03-16T04:05:16.741Z,7.62
2019-03-16T04:07:45.320Z,7.38
2019-03-16T04:10:14.549Z,7.44
2019-03-16T04:12:43.091Z,7.32
2019-03-16T04:15:12.985Z,7.42
2019-03-16T04:17:41.620Z,7.86
2019-03-16T04:20:14.113Z,7.64
2019-03-16T04:22:42.635Z,7.94
2019-03-16T04:25:11.194Z,7.88
2019-03-16T04:27:39.615Z,7.84
2019-03-16T04:30:10.370Z,7.83
2019-03-16T04:32:38.813Z,7.60
2019-03-16T04:35:07.654Z,7.65
2019-03-16T04:37:36.128Z,7.53
2019-03-16T04:40:06.859Z,7.01
2019-03-16T04:42:35.405Z,7.45
2019-03-16T04:45:04.536Z,7.12
2019-03-16T04:47:33.026Z,6.98
2019-03-16T04:50:01.495Z,7.54
2019-03-16T04:52:29.987Z,7.40
2019-03-16T04:54:58.453Z,7.32
2019-03-16T04:57:26.946Z,7.58
2019-03-16T04:59:55.414Z,7.25
2019-03-16T05:02:23.993Z,7.25
2019-03-16T05:04:52.476Z,7.11
2019-03-16T05:07:20.936Z,7.15
2019-03-16T05:09:49.425Z,7.11
2019-03-16T05:12:17.872Z,6.97
2019-03-16T05:14:46.382Z,6.82
2019-03-16T05:17:14.848Z,7.03
2019-03-16T05:19:43.366Z,6.48
2019-03-16T05:22:11.830Z,6.73
2019-03-16T05:24:40.296Z,6.62
2019-03-16T05:27:08.795Z,6.42
2019-03-16T05:29:37.278Z,6.54
2019-03-16T05:32:05.840Z,6.80
2019-03-16T05:34:34.298Z,6.77
2019-03-16T05:37:02.800Z,7.08
2019-03-16T05:39:31.277Z,6.80
2019-03-16T05:41:59.791Z,6.60
2019-03-16T05:44:28.260Z,7.10
2019-03-16T05:46:56.723Z,7.09
2019-03-16T05:49:25.226Z,6.91
2019-03-16T05:51:53.761Z,6.75
2019-03-16T05:54:22.314Z,6.93
2019-03-16T05:56:50.810Z,6.80
2019-03-16T05:59:19.274Z,6.81
2019-03-16T06:01:49.260Z,6.78
2019-03-16T06:04:17.760Z,7.14
2019-03-16T06:06:46.239Z,7.17
2019-03-16T06:09:14.728Z,6.72
2019-03-16T06:11:43.210Z,6.90
2019-03-16T06:14:11.680Z,6.99
2019-03-16T06:16:40.177Z,7.01
2019-03-16T06:19:08.648Z,6.83
2019-03-16T06:21:37.119Z,7.18
2019-03-16T06:24:05.692Z,7.11
2019-03-16T06:26:34.161Z,7.03
2019-03-16T06:29:02.689Z,7.34
2019-03-16T06:31:31.200Z,7.43
2019-03-16T06:33:59.690Z,7.22
2019-03-16T06:36:28.169Z,7.15
2019-03-16T06:38:56.720Z,7.05
2019-03-16T06:41:25.193Z,6.78
2019-03-16T06:43:55.264Z,7.00
2019-03-16T06:46:23.765Z,7.35
2019-03-16T06:48:52.260Z,7.11
2019-03-16T06:51:20.723Z,7.22
2019-03-16T06:53:49.198Z,7.27
2019-03-16T06:56:17.695Z,7.55
2019-03-16T06:58:46.168Z,7.19
2019-03-16T07:01:14.647Z,7.54
2019-03-16T07:03:43.112Z,7.46
2019-03-16T07:06:11.668Z,7.52
2019-03-16T07:08:40.157Z,7.54
2019-03-16T07:11:08.642Z,7.65
2019-03-16T07:13:38.476Z,7.63
2019-03-16T07:16:07.372Z,7.86
2019-03-16T07:18:35.744Z,7.50
2019-03-16T07:21:04.212Z,7.71
2019-03-16T07:23:32.751Z,7.84
2019-03-16T07:26:14.301Z,7.68
2019-03-16T07:28:31.716Z,7.79
2019-03-16T07:31:00.194Z,7.79
2019-03-16T07:33:28.738Z,8.30
2019-03-16T07:35:57.218Z,8.42
2019-03-16T07:38:25.691Z,8.36
2019-03-16T07:40:54.154Z,7.86
2019-03-16T07:43:22.751Z,8.41
2019-03-16T07:45:51.188Z,8.55
2019-03-16T07:48:19.655Z,8.46
2019-03-16T07:50:48.586Z,8.71
2019-03-16T07:53:17.051Z,8.74
2019-03-16T07:55:45.554Z,8.48
2019-03-16T07:58:14.156Z,8.61
2019-03-16T08:00:42.696Z,8.41
2019-03-16T08:03:11.144Z,8.35
2019-03-16T08:05:39.624Z,8.06
2019-03-16T08:08:10.418Z,7.84
2019-03-16T08:10:38.918Z,7.39
2019-03-16T08:13:07.501Z,7.94
2019-03-16T08:15:35.957Z,7.95
2019-03-16T08:18:07.672Z,7.45
2019-03-16T08:20:34.721Z,7.23
2019-03-16T08:23:03.188Z,7.46
2019-03-16T08:25:33.287Z,7.44
2019-03-16T08:28:02.010Z,7.31
2019-03-16T08:30:30.512Z,7.63
2019-03-16T08:32:58.973Z,7.72
2019-03-16T08:35:27.555Z,7.78
2019-03-16T08:37:56.052Z,7.32
2019-03-16T08:40:24.534Z,7.17
2019-03-16T08:42:53.021Z,7.55
2019-03-16T08:45:21.491Z,8.07
2019-03-16T08:47:49.964Z,8.10
2019-03-16T08:50:18.436Z,8.21
2019-03-16T08:52:46.920Z,7.93
2019-03-16T08:55:15.391Z,8.00
2019-03-16T08:57:43.867Z,8.33
2019-03-16T09:00:13.579Z,8.61
2019-03-16T09:02:42.161Z,8.85
2019-03-16T09:05:10.766Z,8.91
2019-03-16T09:07:39.246Z,8.87
2019-03-16T09:10:11.812Z,8.39
2019-03-16T09:12:40.326Z,8.76
2019-03-16T09:15:15.526Z,8.99
2019-03-16T09:17:44.039Z,8.54
2019-03-16T09:20:12.639Z,8.59
2019-03-16T09:22:41.113Z,8.92
2019-03-16T09:25:10.668Z,9.20
2019-03-16T09:27:39.207Z,8.81
2019-03-16T09:30:11.118Z,8.91
2019-03-16T09:32:38.931Z,8.68
2019-03-16T09:35:07.507Z,8.91
2019-03-16T09:37:35.971Z,9.32
2019-03-16T09:40:06.112Z,9.49
2019-03-16T09:42:34.579Z,9.45
2019-03-16T09:45:03.120Z,9.41
2019-03-16T09:47:31.592Z,9.77
2019-03-16T09:50:00.059Z,9.73
2019-03-16T09:52:28.619Z,9.80
2019-03-16T09:54:57.090Z,9.31
2019-03-16T09:57:25.581Z,9.24
2019-03-16T09:59:54.080Z,9.81
2019-03-16T10:02:22.548Z,9.28
2019-03-16T10:04:51.026Z,9.64
2019-03-16T10:07:19.493Z,9.55
2019-03-16T10:09:48.022Z,9.64
2019-03-16T10:12:16.494Z,9.61
2019-03-16T10:14:44.984Z,9.61
2019-03-16T10:17:13.566Z,9.36
2019-03-16T10:19:42.035Z,9.43
2019-03-16T10:22:10.533Z,9.36
2019-03-16T10:24:39.099Z,9.83
2019-03-16T10:27:07.628Z,9.63
2019-03-16T10:29:36.073Z,10.17
2019-03-16T10:32:04.564Z,10.30
2019-03-16T10:34:33.068Z,10.50
2019-03-16T10:37:01.536Z,10.10
2019-03-16T10:39:30.017Z,9.67
2019-03-16T10:41:58.491Z,9.72
2019-03-16T10:44:26.963Z,9.74
2019-03-16T10:46:55.557Z,9.86
2019-03-16T10:49:24.000Z,9.64
2019-03-16T10:51:52.501Z,9.94
2019-03-16T10:54:20.979Z,10.36
2019-03-16T10:56:49.460Z,10.59
2019-03-16T10:59:18.038Z,10.46
2019-03-16T11:01:46.507Z,10.62
2019-03-16T11:04:15.038Z,10.56
2019-03-16T11:06:44.437Z,10.38
2019-03-16T11:09:13.023Z,10.27
2019-03-16T11:11:41.846Z,10.51
2019-03-16T11:14:10.960Z,10.72
2019-03-16T11:16:39.501Z,10.51
2019-03-16T11:19:08.019Z,10.89
2019-03-16T11:21:37.524Z,11.00
2019-03-16T11:24:06.075Z,11.08
2019-03-16T11:26:34.413Z,11.06
2019-03-16T11:29:09.024Z,11.04
2019-03-16T11:31:33.112Z,11.12
2019-03-16T11:34:01.614Z,11.15
2019-03-16T11:36:32.833Z,11.24
2019-03-16T11:39:01.333Z,10.92
2019-03-16T11:41:30.801Z,10.69
2019-03-16T11:43:59.285Z,11.08
2019-03-16T11:46:27.786Z,10.99
2019-03-16T11:48:58.667Z,11.12
2019-03-16T11:51:27.151Z,10.69
2019-03-16T11:53:55.636Z,10.62
2019-03-16T11:56:24.125Z,10.78
2019-03-16T11:58:52.614Z,10.59
2019-03-16T12:01:21.095Z,11.00
2019-03-16T12:03:49.600Z,10.77
2019-03-16T12:06:18.079Z,10.99
2019-03-16T12:08:46.579Z,11.40
2019-03-16T12:11:15.064Z,10.90
2019-03-16T12:13:44.042Z,11.00
2019-03-16T12:16:12.718Z,10.86
2019-03-16T12:18:41.226Z,11.13
2019-03-16T12:21:11.238Z,10.35
2019-03-16T12:23:39.847Z,10.29
2019-03-16T12:26:08.328Z,10.13
2019-03-16T12:28:36.836Z,10.65
2019-03-16T12:31:05.402Z,10.57
2019-03-16T12:33:33.872Z,10.88
2019-03-16T12:36:02.380Z,11.16
2019-03-16T12:38:30.848Z,11.05
2019-03-16T12:40:59.350Z,10.66
2019-03-16T12:43:27.897Z,10.90
2019-03-16T12:45:56.411Z,11.06
2019-03-16T12:48:24.890Z,10.92
2019-03-16T12:50:54.491Z,11.01
2019-03-16T12:53:23.021Z,11.15
2019-03-16T12:55:51.507Z,10.98
2019-03-16T12:58:19.982Z,11.43
2019-03-16T13:00:49.710Z,11.44
2019-03-16T13:03:18.178Z,10.89
2019-03-16T13:05:46.686Z,11.05
2019-03-16T13:08:15.168Z,10.98
2019-03-16T13:10:44.258Z,11.31
2019-03-16T13:13:12.759Z,11.05
2019-03-16T13:15:41.826Z,10.99
2019-03-16T13:18:10.335Z,11.03
2019-03-16T13:20:38.842Z,11.13
2019-03-16T13:23:08.673Z,11.23
2019-03-16T13:25:37.132Z,11.39
2019-03-16T13:28:05.714Z,11.62
2019-03-16T13:30:43.401Z,11.49
2019-03-16T13:33:12.296Z,11.02
2019-03-16T13:35:40.776Z,11.41
2019-03-16T13:38:09.283Z,11.42
2019-03-16T13:40:38.326Z,11.53
2019-03-16T13:43:06.832Z,11.19
2019-03-16T13:45:35.816Z,11.48
2019-03-16T13:48:04.302Z,11.44
2019-03-16T13:50:32.783Z,11.48
2019-03-16T13:53:01.655Z,11.62
2019-03-16T13:55:30.143Z,11.31
2019-03-16T13:58:00.214Z,11.42
2019-03-16T14:00:28.834Z,11.58
2019-03-16T14:02:57.258Z,11.80
2019-03-16T14:05:25.859Z,11.33
2019-03-16T14:07:54.332Z,10.79
2019-03-16T14:10:33.547Z,11.05
2019-03-16T14:13:02.987Z,11.18
2019-03-16T14:15:31.605Z,11.43
2019-03-16T14:18:00.086Z,11.59
2019-03-16T14:20:30.203Z,10.72
2019-03-16T14:22:59.051Z,10.55
2019-03-16T14:25:27.553Z,10.81
2019-03-16T14:27:56.021Z,10.84
2019-03-16T14:30:39.871Z,10.85
2019-03-16T14:32:54.709Z,10.29
2019-03-16T14:35:23.212Z,9.73
2019-03-16T14:37:51.699Z,9.72
2019-03-16T14:40:20.313Z,9.57
2019-03-16T14:42:48.787Z,9.47
2019-03-16T14:45:17.712Z,9.51
2019-03-16T14:47:46.262Z,9.17
2019-03-16T14:50:25.290Z,9.09
2019-03-16T14:52:53.793Z,9.03
2019-03-16T14:55:22.272Z,8.71
2019-03-16T14:57:50.778Z,9.09
2019-03-16T15:00:19.802Z,8.97
2019-03-16T15:02:48.657Z,8.86
2019-03-16T15:05:17.179Z,8.92
2019-03-16T15:07:45.649Z,8.83
2019-03-16T15:10:17.576Z,8.58
2019-03-16T15:12:45.500Z,8.52
2019-03-16T15:15:18.211Z,8.72
2019-03-16T15:17:46.697Z,8.74
2019-03-16T15:20:15.244Z,8.65
2019-03-16T15:22:43.806Z,8.55
2019-03-16T15:25:13.119Z,8.62
2019-03-16T15:27:41.700Z,8.66
2019-03-16T15:30:20.735Z,8.44
2019-03-16T15:32:49.364Z,8.48
2019-03-16T15:35:17.854Z,8.68
2019-03-16T15:37:46.885Z,8.62
2019-03-16T15:40:16.139Z,8.64
2019-03-16T15:42:44.613Z,8.46
2019-03-16T15:45:33.072Z,8.59
2019-03-16T15:48:01.678Z,8.48
2019-03-16T15:50:30.266Z,8.54
2019-03-16T15:52:58.736Z,8.49
2019-03-16T15:55:27.232Z,8.47
2019-03-16T15:58:07.343Z,8.33
2019-03-16T16:00:27.254Z,8.37
2019-03-16T16:02:55.728Z,8.46
2019-03-16T16:05:24.289Z,8.43
2019-03-16T16:07:52.786Z,8.33
2019-03-16T16:10:21.320Z,8.01
2019-03-16T16:12:49.821Z,8.20
2019-03-16T16:15:18.437Z,8.08
2019-03-16T16:17:46.915Z,7.98
2019-03-16T16:20:16.622Z,7.95
2019-03-16T16:22:45.155Z,8.06
2019-03-16T16:25:14.567Z,8.01
2019-03-16T16:27:44.681Z,8.15
2019-03-16T16:30:19.230Z,8.20
2019-03-16T16:32:47.976Z,8.37
2019-03-16T16:35:17.140Z,8.40
2019-03-16T16:37:45.673Z,7.77
2019-03-16T16:40:20.540Z,7.47
2019-03-16T16:42:51.794Z,7.78
2019-03-16T16:45:20.325Z,7.60
2019-03-16T16:47:48.803Z,7.66
2019-03-16T16:50:24.481Z,7.69
2019-03-16T16:52:53.301Z,7.50
2019-03-16T16:55:21.837Z,7.42
2019-03-16T16:57:51.862Z,7.54
2019-03-16T17:00:22.086Z,7.75
2019-03-16T17:02:50.559Z,7.52
2019-03-16T17:05:19.137Z,7.85
2019-03-16T17:07:47.604Z,7.82
2019-03-16T17:10:16.625Z,8.08
2019-03-16T17:12:45.460Z,7.64
2019-03-16T17:15:18.323Z,7.84
2019-03-16T17:17:46.880Z,7.57
2019-03-16T17:20:16.020Z,7.03
2019-03-16T17:22:44.590Z,7.36
2019-03-16T17:25:14.158Z,7.10
2019-03-16T17:27:42.760Z,6.60
2019-03-16T17:30:20.134Z,6.64
2019-03-16T17:32:48.636Z,6.57
2019-03-16T17:35:17.273Z,6.34
2019-03-16T17:37:45.788Z,6.43
2019-03-16T17:40:17.397Z,6.41
2019-03-16T17:42:45.945Z,6.66
2019-03-16T17:45:15.860Z,6.57
2019-03-16T17:47:46.100Z,6.40
2019-03-16T17:50:15.516Z,6.46
2019-03-16T17:52:44.056Z,6.34
2019-03-16T17:55:19.394Z,6.32
2019-03-16T17:57:47.953Z,6.33
2019-03-16T18:00:17.987Z,6.27
2019-03-16T18:02:51.869Z,6.11
2019-03-16T18:05:16.729Z,6.28
2019-03-16T18:07:45.280Z,6.49
2019-03-16T18:10:14.709Z,6.39
2019-03-16T18:12:43.252Z,6.09
2019-03-16T18:15:14.802Z,6.04
2019-03-16T18:17:43.274Z,6.28
2019-03-16T18:20:19.202Z,6.37
2019-03-16T18:22:49.223Z,6.62
2019-03-16T18:25:18.005Z,6.42
2019-03-16T18:27:49.113Z,6.13
2019-03-16T18:30:19.027Z,6.38
2019-03-16T18:32:47.513Z,6.31
2019-03-16T18:35:16.122Z,6.56
2019-03-16T18:37:44.583Z,6.36
2019-03-16T18:40:13.999Z,6.26
2019-03-16T18:42:42.502Z,6.40
2019-03-16T18:45:13.417Z,6.88
2019-03-16T18:47:42.010Z,6.42
2019-03-16T18:50:11.981Z,6.35
2019-03-16T18:52:42.000Z,6.35
2019-03-16T18:55:13.146Z,6.93
2019-03-16T18:57:44.368Z,6.26
2019-03-16T19:00:16.529Z,6.11
2019-03-16T19:02:46.217Z,6.28
2019-03-16T19:05:14.924Z,6.15
2019-03-16T19:07:43.497Z,6.33
2019-03-16T19:10:16.934Z,6.44
2019-03-16T19:12:45.906Z,6.36
2019-03-16T19:15:18.000Z,6.54
2019-03-16T19:17:58.064Z,6.93
2019-03-16T19:20:17.609Z,7.04
2019-03-16T19:22:47.005Z,6.52
2019-03-16T19:25:20.176Z,6.95
2019-03-16T19:27:48.718Z,6.50
2019-03-16T19:30:18.279Z,6.63
2019-03-16T19:32:49.425Z,6.31
2019-03-16T19:35:17.911Z,6.41
2019-03-16T19:37:47.405Z,6.44
2019-03-16T19:40:19.944Z,6.59
2019-03-16T19:42:48.641Z,6.49
2019-03-16T19:45:20.285Z,6.29
2019-03-16T19:47:51.910Z,6.70
2019-03-16T19:50:22.364Z,6.75
2019-03-16T19:52:50.841Z,6.72
2019-03-16T19:55:19.601Z,6.51
2019-03-16T19:57:48.873Z,6.24
2019-03-16T20:00:18.657Z,6.79
2019-03-16T20:02:51.281Z,6.62
2019-03-16T20:05:20.339Z,6.50
2019-03-16T20:07:49.065Z,7.03
2019-03-16T20:10:18.725Z,6.49
2019-03-16T20:12:47.363Z,6.63
2019-03-16T20:15:16.364Z,6.70
2019-03-16T20:17:45.036Z,6.59
2019-03-16T20:20:14.710Z,6.76
2019-03-16T20:22:44.088Z,6.76
2019-03-16T20:25:14.861Z,6.33
2019-03-16T20:27:43.431Z,6.57
2019-03-16T20:30:25.825Z,6.68
2019-03-16T20:32:50.367Z,6.79
2019-03-16T20:35:16.919Z,7.16
2019-03-16T20:37:46.344Z,6.93
2019-03-16T20:40:17.070Z,6.89
2019-03-16T20:42:45.540Z,6.87
2019-03-16T20:45:15.928Z,7.10
2019-03-16T20:47:44.546Z,6.94
2019-03-16T20:50:15.023Z,6.78
2019-03-16T20:52:44.431Z,6.83
2019-03-16T20:55:13.245Z,6.91
2019-03-16T20:57:41.804Z,6.88
2019-03-16T21:00:18.129Z,6.94
2019-03-16T21:02:48.289Z,7.23
2019-03-16T21:05:16.813Z,7.16
2019-03-16T21:07:45.295Z,6.95
2019-03-16T21:10:14.355Z,6.65
2019-03-16T21:12:42.905Z,6.77
2019-03-16T21:15:16.604Z,7.09
2019-03-16T21:17:45.087Z,6.85
2019-03-16T21:20:14.949Z,7.11
2019-03-16T21:22:43.725Z,7.15
2019-03-16T21:25:13.871Z,7.55
2019-03-16T21:27:42.489Z,7.38
2019-03-16T21:30:13.723Z,7.18
2019-03-16T21:32:42.198Z,7.25
2019-03-16T21:35:10.937Z,7.28
2019-03-16T21:37:39.452Z,7.28
2019-03-16T21:40:10.504Z,7.39
2019-03-16T21:42:39.039Z,7.86
2019-03-16T21:45:11.850Z,7.75
2019-03-16T21:47:41.982Z,7.75
2019-03-16T21:50:12.222Z,7.97
2019-03-16T21:52:40.731Z,7.98
2019-03-16T21:55:10.788Z,7.86
2019-03-16T21:57:39.251Z,7.99
2019-03-16T22:00:12.759Z,8.02
2019-03-16T22:02:41.297Z,8.08
2019-03-16T22:05:10.404Z,8.27
2019-03-16T22:07:38.949Z,8.10
2019-03-16T22:10:09.918Z,8.35
2019-03-16T22:12:38.390Z,8.50
2019-03-16T22:15:10.884Z,8.54
2019-03-16T22:17:39.438Z,8.23
2019-03-16T22:20:11.191Z,8.17
2019-03-16T22:22:39.829Z,8.15
2019-03-16T22:25:09.467Z,8.09
2019-03-16T22:27:37.974Z,8.30
2019-03-16T22:30:09.052Z,8.38
2019-03-16T22:32:37.538Z,8.43
2019-03-16T22:35:09.113Z,8.54
2019-03-16T22:37:37.171Z,8.50
2019-03-16T22:40:11.843Z,8.26
2019-03-16T22:42:40.353Z,8.33
2019-03-16T22:45:13.239Z,8.27
2019-03-16T22:47:41.872Z,7.87
2019-03-16T22:50:14.375Z,7.74
2019-03-16T22:52:42.851Z,7.92
2019-03-16T22:55:11.506Z,7.73
2019-03-16T22:57:39.977Z,7.54
2019-03-16T23:00:11.694Z,7.74
2019-03-16T23:02:40.305Z,7.82
2019-03-16T23:05:11.309Z,8.07
2019-03-16T23:07:39.815Z,8.01
2019-03-16T23:10:10.425Z,8.08
2019-03-16T23:12:38.992Z,8.14
2019-03-16T23:15:12.159Z,8.08
2019-03-16T23:17:40.691Z,8.10
2019-03-16T23:20:10.229Z,8.23
2019-03-16T23:22:38.766Z,8.39
2019-03-16T23:25:08.969Z,8.37
2019-03-16T23:27:37.459Z,8.60
2019-03-16T23:30:08.271Z,8.67
2019-03-16T23:32:36.753Z,8.49
2019-03-16T23:35:06.965Z,8.37
2019-03-16T23:37:35.517Z,8.02
2019-03-16T23:40:10.279Z,8.17
2019-03-16T23:42:38.761Z,8.45
2019-03-16T23:45:09.508Z,8.60
2019-03-16T23:47:38.013Z,8.94
2019-03-16T23:50:11.682Z,9.01
2019-03-16T23:52:40.168Z,8.86
2019-03-16T23:55:09.792Z,8.69
2019-03-16T23:57:38.370Z,8.73
